createdAt,value
2018-06-17T00:01:40.613Z,100.00
2018-06-17T00:06:41.194Z,100.00
2018-06-17T00:09:12.168Z,100.00
2018-06-17T00:11:43.423Z,100.00
2018-06-17T00:14:14.323Z,100.00
2018-06-17T00:16:45.803Z,100.00
2018-06-17T00:19:16.866Z,100.00
2018-06-17T00:21:48.777Z,100.00
2018-06-17T00:24:19.906Z,100.00
2018-06-17T00:26:51.276Z,100.00
2018-06-17T00:29:22.363Z,100.00
2018-06-17T00:31:54.548Z,100.00
2018-06-17T00:34:25.691Z,100.00
2018-06-17T00:36:56.800Z,100.00
2018-06-17T00:39:27.858Z,100.00
2018-06-17T00:41:59.762Z,100.00
2018-06-17T00:44:31.002Z,100.00
2018-06-17T00:47:03.945Z,100.00
2018-06-17T00:49:35.846Z,100.00
2018-06-17T00:52:07.222Z,100.00
2018-06-17T00:54:38.352Z,100.00
2018-06-17T00:57:19.566Z,100.00
2018-06-17T00:59:50.715Z,100.00
2018-06-17T01:02:23.564Z,100.00
2018-06-17T01:04:54.419Z,100.00
2018-06-17T01:07:25.458Z,100.00
2018-06-17T01:09:57.411Z,100.00
2018-06-17T01:12:29.227Z,100.00
2018-06-17T01:15:00.135Z,100.00
2018-06-17T01:17:31.074Z,100.00
2018-06-17T01:20:02.153Z,100.00
2018-06-17T01:22:33.511Z,100.00
2018-06-17T01:25:04.369Z,100.00
2018-06-17T01:27:35.533Z,100.00
2018-06-17T01:30:06.564Z,100.00
2018-06-17T01:32:38.589Z,100.00
2018-06-17T01:35:09.752Z,100.00
2018-06-17T01:37:40.824Z,100.00
2018-06-17T01:40:12.180Z,100.00
2018-06-17T01:42:43.487Z,100.00
2018-06-17T01:45:14.552Z,100.00
2018-06-17T01:47:46.600Z,100.00
2018-06-17T01:50:17.664Z,100.00
2018-06-17T01:52:50.538Z,100.00
2018-06-17T01:55:21.737Z,100.00
2018-06-17T01:57:53.064Z,100.00
2018-06-17T02:00:24.169Z,100.00
2018-06-17T02:02:55.133Z,100.00
2018-06-17T02:05:31.806Z,100.00
2018-06-17T02:08:07.623Z,100.00
2018-06-17T02:10:43.346Z,100.00
2018-06-17T02:13:14.558Z,100.00
2018-06-17T02:15:45.613Z,100.00
2018-06-17T02:18:16.551Z,100.00
2018-06-17T02:20:47.634Z,100.00
2018-06-17T02:23:20.666Z,100.00
2018-06-17T02:25:51.893Z,100.00
2018-06-17T02:28:23.086Z,100.00
2018-06-17T02:30:54.193Z,100.00
2018-06-17T02:33:25.697Z,100.00
2018-06-17T02:35:56.798Z,100.00
2018-06-17T02:38:28.015Z,100.00
2018-06-17T02:40:58.936Z,100.00
2018-06-17T02:43:30.126Z,100.00
2018-06-17T02:46:06.104Z,100.00
2018-06-17T02:48:42.157Z,100.00
2018-06-17T02:51:17.867Z,100.00
2018-06-17T02:53:53.765Z,100.00
2018-06-17T02:56:24.736Z,100.00
2018-06-17T02:58:57.487Z,100.00
2018-06-17T03:01:28.553Z,100.00
2018-06-17T03:03:59.932Z,100.00
2018-06-17T03:06:31.101Z,100.00
2018-06-17T03:09:02.171Z,98.99
2018-06-17T03:11:33.071Z,98.57
2018-06-17T03:14:04.199Z,97.98
2018-06-17T03:16:35.448Z,97.27
2018-06-17T03:19:06.651Z,97.04
2018-06-17T03:21:38.824Z,96.23
2018-06-17T03:24:13.719Z,96.40
2018-06-17T03:26:49.809Z,97.28
2018-06-17T03:29:25.479Z,96.43
2018-06-17T03:32:02.004Z,95.79
2018-06-17T03:34:32.793Z,94.76
2018-06-17T03:37:03.921Z,93.27
2018-06-17T03:39:35.089Z,92.25
2018-06-17T03:42:06.069Z,91.80
2018-06-17T03:44:37.113Z,91.17
2018-06-17T03:47:08.499Z,87.53
2018-06-17T03:49:40.570Z,85.06
2018-06-17T03:52:11.497Z,80.20
2018-06-17T03:54:43.347Z,76.67
2018-06-17T03:57:15.218Z,77.80
2018-06-17T03:59:46.974Z,80.48
2018-06-17T04:02:18.040Z,81.02
2018-06-17T04:04:54.184Z,80.49
2018-06-17T04:07:25.363Z,79.50
2018-06-17T04:09:56.362Z,76.05
2018-06-17T04:12:27.341Z,74.93
2018-06-17T04:14:59.220Z,74.58
2018-06-17T04:20:12.888Z,80.43
2018-06-17T04:22:43.613Z,80.02
2018-06-17T04:25:15.521Z,83.83
2018-06-17T04:27:46.502Z,82.86
2018-06-17T04:30:17.667Z,82.99
2018-06-17T04:32:48.653Z,83.75
2018-06-17T04:35:20.648Z,81.87
2018-06-17T04:37:51.710Z,81.83
2018-06-17T04:40:22.727Z,79.35
2018-06-17T04:45:29.980Z,79.84
2018-06-17T04:48:01.005Z,77.82
2018-06-17T04:50:32.112Z,75.78
2018-06-17T04:53:03.300Z,73.58
2018-06-17T04:55:35.545Z,74.24
2018-06-17T05:00:58.762Z,72.46
2018-06-17T05:03:33.552Z,68.21
2018-06-17T05:06:05.807Z,65.94
2018-06-17T05:08:37.081Z,64.35
2018-06-17T05:11:08.063Z,65.09
2018-06-17T05:13:42.585Z,66.89
2018-06-17T05:16:20.174Z,65.18
2018-06-17T05:18:54.647Z,65.58
2018-06-17T05:21:25.730Z,66.40
2018-06-17T05:24:05.486Z,64.11
2018-06-17T05:26:37.555Z,62.89
2018-06-17T05:29:14.019Z,67.12
2018-06-17T05:31:44.666Z,67.56
2018-06-17T05:34:15.359Z,63.15
2018-06-17T05:36:46.403Z,58.97
2018-06-17T05:39:19.098Z,61.38
2018-06-17T05:41:59.168Z,60.33
2018-06-17T05:44:34.088Z,59.43
2018-06-17T05:47:05.314Z,58.12
2018-06-17T05:49:46.864Z,54.73
2018-06-17T05:54:57.888Z,49.66
2018-06-17T06:00:24.207Z,45.99
2018-06-17T06:02:54.871Z,41.09
2018-06-17T06:05:25.611Z,37.07
2018-06-17T06:07:56.377Z,39.78
2018-06-17T06:10:27.169Z,41.17
2018-06-17T06:12:57.862Z,42.57
2018-06-17T06:15:29.736Z,40.11
2018-06-17T06:18:12.971Z,36.92
2018-06-17T06:20:43.681Z,37.12
2018-06-17T06:23:14.284Z,37.24
2018-06-17T06:25:50.180Z,34.72
2018-06-17T06:28:20.793Z,35.98
2018-06-17T06:31:03.931Z,38.96
2018-06-17T06:36:23.633Z,34.78
2018-06-17T06:39:07.058Z,37.00
2018-06-17T06:41:38.776Z,35.74
2018-06-17T06:44:10.461Z,34.47
2018-06-17T06:46:41.630Z,36.15
2018-06-17T06:49:12.243Z,35.74
2018-06-17T06:51:49.336Z,36.50
2018-06-17T06:57:09.314Z,35.85
2018-06-17T06:59:45.767Z,37.16
2018-06-17T07:02:28.228Z,36.99
2018-06-17T07:05:15.635Z,36.12
2018-06-17T07:10:44.067Z,37.51
2018-06-17T07:13:18.294Z,37.04
2018-06-17T07:16:07.047Z,35.49
2018-06-17T07:21:26.029Z,34.44
2018-06-17T07:24:00.911Z,35.14
2018-06-17T07:29:44.165Z,36.73
2018-06-17T07:32:15.633Z,38.81
2018-06-17T07:34:51.725Z,40.00
2018-06-17T07:37:22.660Z,39.82
2018-06-17T07:41:01.718Z,41.56
2018-06-17T07:43:33.569Z,43.88
2018-06-17T07:46:10.409Z,42.48
2018-06-17T07:49:54.584Z,43.01
2018-06-17T07:52:40.817Z,44.17
2018-06-17T07:55:19.483Z,44.96
2018-06-17T07:57:51.650Z,45.23
2018-06-17T08:00:27.958Z,44.83
2018-06-17T08:03:04.248Z,44.02
2018-06-17T08:05:38.989Z,45.99
2018-06-17T08:08:17.462Z,47.59
2018-06-17T08:10:48.320Z,49.77
2018-06-17T08:13:22.936Z,49.44
2018-06-17T08:16:06.257Z,50.75
2018-06-17T08:18:36.828Z,54.23
2018-06-17T08:21:07.609Z,53.94
2018-06-17T08:23:49.153Z,57.56
2018-06-17T08:26:35.532Z,57.41
2018-06-17T08:29:06.302Z,59.27
2018-06-17T08:31:37.200Z,60.10
2018-06-17T08:34:07.973Z,59.92
2018-06-17T08:36:41.917Z,61.00
2018-06-17T08:39:15.351Z,61.07
2018-06-17T08:44:57.461Z,61.16
2018-06-17T08:47:35.978Z,62.72
2018-06-17T08:50:07.220Z,63.79
2018-06-17T08:52:43.296Z,64.03
2018-06-17T08:55:23.226Z,61.92
2018-06-17T09:00:49.446Z,63.32
2018-06-17T09:03:33.365Z,62.69
2018-06-17T09:06:06.047Z,62.09
2018-06-17T09:11:36.933Z,60.20
2018-06-17T09:14:10.090Z,61.26
2018-06-17T09:16:43.374Z,61.23
2018-06-17T09:19:14.816Z,59.98
2018-06-17T09:21:55.861Z,60.01
2018-06-17T09:24:29.979Z,60.63
2018-06-17T09:27:00.876Z,59.78
2018-06-17T09:29:38.548Z,59.08
2018-06-17T09:32:11.079Z,58.17
2018-06-17T09:37:34.586Z,60.57
2018-06-17T09:40:14.954Z,58.52
2018-06-17T09:42:45.509Z,59.21
2018-06-17T09:45:16.490Z,58.84
2018-06-17T09:47:58.789Z,58.81
2018-06-17T09:50:38.764Z,56.68
2018-06-17T09:53:09.537Z,57.06
2018-06-17T09:55:41.563Z,58.07
2018-06-17T09:58:12.067Z,56.73
2018-06-17T10:00:42.445Z,54.44
2018-06-17T10:03:22.108Z,51.93
2018-06-17T10:06:09.935Z,54.24
2018-06-17T10:08:46.524Z,54.92
2018-06-17T10:11:16.789Z,54.53
2018-06-17T10:13:57.928Z,54.83
2018-06-17T10:16:29.160Z,55.35
2018-06-17T10:19:06.132Z,54.22
2018-06-17T10:21:50.263Z,51.76
2018-06-17T10:27:20.785Z,52.56
2018-06-17T10:30:15.277Z,53.28
2018-06-17T10:32:46.003Z,51.59
2018-06-17T10:35:16.647Z,50.98
2018-06-17T10:37:47.278Z,52.48
2018-06-17T10:40:34.030Z,49.58
2018-06-17T10:43:14.240Z,50.15
2018-06-17T10:45:57.895Z,47.82
2018-06-17T10:48:28.646Z,55.06
2018-06-17T10:50:59.297Z,58.41
2018-06-17T10:56:24.851Z,56.83
2018-06-17T10:58:55.466Z,60.27
2018-06-17T11:04:17.918Z,59.63
2018-06-17T11:07:06.080Z,59.14
2018-06-17T11:12:21.835Z,62.99
2018-06-17T11:20:29.620Z,65.18
2018-06-17T11:23:00.690Z,64.84
2018-06-17T11:25:31.706Z,65.83
2018-06-17T11:33:37.041Z,70.49
2018-06-17T11:36:12.732Z,73.42
2018-06-17T11:39:04.338Z,80.10
2018-06-17T11:41:50.966Z,86.74
2018-06-17T11:44:23.344Z,98.49
2018-06-17T11:49:51.277Z,100.00
2018-06-17T11:52:28.190Z,100.00
2018-06-17T11:55:04.958Z,100.00
2018-06-17T11:57:35.637Z,100.00
2018-06-17T12:00:07.029Z,100.00
2018-06-17T12:02:37.715Z,100.00
2018-06-17T12:05:08.427Z,100.00
2018-06-17T12:10:34.331Z,100.00
2018-06-17T12:13:05.242Z,100.00
2018-06-17T12:18:21.518Z,100.00
2018-06-17T12:23:51.638Z,100.00
2018-06-17T12:32:08.420Z,100.00
2018-06-17T12:34:50.339Z,100.00
2018-06-17T12:40:31.751Z,100.00
2018-06-17T12:43:02.458Z,100.00
2018-06-17T12:45:33.253Z,100.00
2018-06-17T12:48:18.079Z,100.00
2018-06-17T12:51:06.280Z,100.00
2018-06-17T12:53:36.996Z,100.00
2018-06-17T12:56:08.269Z,100.00
2018-06-17T12:58:39.149Z,100.00
2018-06-17T13:01:14.921Z,100.00
2018-06-17T13:03:45.569Z,100.00
2018-06-17T13:06:27.561Z,100.00
2018-06-17T13:08:58.295Z,98.09
2018-06-17T13:11:29.685Z,100.00
2018-06-17T13:14:00.361Z,96.74
2018-06-17T13:16:31.060Z,95.31
2018-06-17T13:19:01.773Z,93.58
2018-06-17T13:21:32.478Z,94.94
2018-06-17T13:24:03.396Z,92.01
2018-06-17T13:26:34.000Z,92.45
2018-06-17T13:29:04.982Z,90.51
2018-06-17T13:31:35.632Z,92.18
2018-06-17T13:34:06.811Z,91.53
2018-06-17T13:36:37.604Z,91.56
2018-06-17T13:39:10.445Z,91.79
2018-06-17T13:41:41.161Z,91.93
2018-06-17T13:44:11.911Z,93.08
2018-06-17T13:46:42.768Z,91.55
2018-06-17T13:49:13.474Z,91.41
2018-06-17T13:51:44.175Z,93.58
2018-06-17T13:54:14.948Z,92.22
2018-06-17T13:56:45.759Z,92.36
2018-06-17T13:59:16.855Z,89.80
2018-06-17T14:01:47.611Z,85.92
2018-06-17T14:04:18.534Z,88.02
2018-06-17T14:06:49.452Z,87.44
2018-06-17T14:09:25.155Z,88.47
2018-06-17T14:11:57.499Z,88.28
2018-06-17T14:14:28.276Z,88.71
2018-06-17T14:17:00.000Z,88.87
2018-06-17T14:19:30.780Z,90.43
2018-06-17T14:22:01.414Z,89.82
2018-06-17T14:24:32.185Z,90.21
2018-06-17T14:27:02.893Z,89.55
2018-06-17T14:29:33.668Z,90.58
2018-06-17T14:32:04.544Z,92.79
2018-06-17T14:34:35.137Z,92.53
2018-06-17T14:37:06.070Z,92.41
2018-06-17T14:39:38.058Z,93.52
2018-06-17T14:42:13.622Z,95.08
2018-06-17T14:44:49.429Z,93.98
2018-06-17T14:47:24.897Z,92.57
2018-06-17T14:50:00.769Z,92.53
2018-06-17T14:52:36.391Z,92.87
2018-06-17T14:55:07.285Z,93.75
2018-06-17T14:57:37.974Z,95.61
2018-06-17T15:00:08.755Z,95.68
2018-06-17T15:02:39.422Z,97.01
2018-06-17T15:05:10.323Z,97.07
2018-06-17T15:07:48.262Z,96.71
2018-06-17T15:10:19.245Z,96.83
2018-06-17T15:12:50.085Z,96.84
2018-06-17T15:15:20.778Z,96.25
2018-06-17T15:17:51.621Z,95.40
2018-06-17T15:20:22.283Z,96.08
2018-06-17T15:22:53.018Z,97.80
2018-06-17T15:25:23.645Z,97.66
2018-06-17T15:27:54.397Z,97.38
2018-06-17T15:30:25.201Z,96.78
2018-06-17T15:34:00.395Z,96.74
2018-06-17T15:36:36.207Z,94.31
2018-06-17T15:39:14.807Z,93.57
2018-06-17T15:41:45.957Z,91.79
2018-06-17T15:44:16.618Z,93.51
2018-06-17T15:46:47.314Z,94.17
2018-06-17T15:49:17.943Z,94.34
2018-06-17T15:51:48.738Z,93.84
2018-06-17T15:54:19.662Z,92.37
2018-06-17T15:56:50.338Z,92.31
2018-06-17T15:59:21.008Z,92.86
2018-06-17T16:01:51.772Z,89.52
2018-06-17T16:04:22.505Z,88.61
2018-06-17T16:06:53.263Z,90.02
2018-06-17T16:09:30.893Z,91.65
2018-06-17T16:12:07.691Z,91.35
2018-06-17T16:14:43.821Z,93.64
2018-06-17T16:17:19.811Z,93.13
2018-06-17T16:19:55.705Z,92.65
2018-06-17T16:22:26.713Z,93.58
2018-06-17T16:24:57.724Z,93.57
2018-06-17T16:27:29.197Z,92.96
2018-06-17T16:30:00.775Z,93.06
2018-06-17T16:32:32.113Z,93.08
2018-06-17T16:35:03.569Z,93.00
2018-06-17T16:37:36.161Z,92.25
2018-06-17T16:40:09.609Z,91.73
2018-06-17T16:42:41.146Z,91.54
2018-06-17T16:45:12.481Z,93.38
2018-06-17T16:47:43.948Z,94.54
2018-06-17T16:50:15.276Z,95.29
2018-06-17T16:52:51.135Z,95.26
2018-06-17T16:55:26.804Z,96.36
2018-06-17T16:58:02.560Z,98.22
2018-06-17T17:00:33.170Z,98.25
2018-06-17T17:03:03.870Z,99.03
2018-06-17T17:05:34.404Z,99.98
2018-06-17T17:08:05.212Z,100.00
2018-06-17T17:10:35.921Z,100.00
2018-06-17T17:13:06.587Z,100.00
2018-06-17T17:15:37.339Z,100.00
2018-06-17T17:18:08.083Z,100.00
2018-06-17T17:20:38.755Z,100.00
2018-06-17T17:23:09.763Z,100.00
2018-06-17T17:25:40.448Z,100.00
2018-06-17T17:28:11.541Z,100.00
2018-06-17T17:30:46.441Z,100.00
2018-06-17T17:33:22.098Z,100.00
2018-06-17T17:35:57.549Z,100.00
2018-06-17T17:39:32.502Z,100.00
2018-06-17T17:42:04.561Z,100.00
2018-06-17T17:44:40.621Z,100.00
2018-06-17T17:47:17.638Z,100.00
2018-06-17T17:49:49.097Z,100.00
2018-06-17T17:52:19.863Z,100.00
2018-06-17T17:54:50.687Z,100.00
2018-06-17T17:57:21.467Z,100.00
2018-06-17T17:59:52.143Z,100.00
2018-06-17T18:02:23.372Z,100.00
2018-06-17T18:04:54.318Z,100.00
2018-06-17T18:07:25.616Z,100.00
2018-06-17T18:09:57.288Z,100.00
2018-06-17T18:12:28.892Z,100.00
2018-06-17T18:15:00.710Z,100.00
2018-06-17T18:17:33.125Z,99.17
2018-06-17T18:20:04.413Z,98.40
2018-06-17T18:22:35.561Z,98.66
2018-06-17T18:25:12.069Z,98.17
2018-06-17T18:27:47.972Z,97.51
2018-06-17T18:30:23.953Z,98.47
2018-06-17T18:32:59.875Z,99.72
2018-06-17T18:35:35.579Z,99.05
2018-06-17T18:38:06.767Z,100.00
2018-06-17T18:40:37.889Z,99.78
2018-06-17T18:43:09.146Z,100.00
2018-06-17T18:45:40.308Z,100.00
2018-06-17T18:48:11.608Z,100.00
2018-06-17T18:50:43.258Z,100.00
2018-06-17T18:53:23.784Z,100.00
2018-06-17T18:55:55.009Z,100.00
2018-06-17T18:58:26.424Z,100.00
2018-06-17T19:00:57.625Z,100.00
2018-06-17T19:03:28.708Z,100.00
2018-06-17T19:05:59.929Z,100.00
2018-06-17T19:08:35.845Z,100.00
2018-06-17T19:11:13.675Z,100.00
2018-06-17T19:13:58.818Z,100.00
2018-06-17T19:16:34.682Z,100.00
2018-06-17T19:19:05.908Z,100.00
2018-06-17T19:21:37.137Z,100.00
2018-06-17T19:24:08.315Z,100.00
2018-06-17T19:26:39.345Z,100.00
2018-06-17T19:29:10.619Z,100.00
2018-06-17T19:31:42.637Z,100.00
2018-06-17T19:34:13.746Z,98.15
2018-06-17T19:36:44.536Z,86.79
2018-06-17T19:39:15.656Z,85.50
2018-06-17T19:41:47.316Z,85.60
2018-06-17T19:44:18.505Z,92.00
2018-06-17T19:46:49.606Z,100.00
2018-06-17T19:49:20.835Z,100.00
2018-06-17T19:51:56.760Z,100.00
2018-06-17T19:54:32.701Z,100.00
2018-06-17T19:57:08.972Z,100.00
2018-06-17T19:59:44.866Z,100.00
2018-06-17T20:02:15.991Z,100.00
2018-06-17T20:04:47.447Z,100.00
2018-06-17T20:07:18.611Z,100.00
2018-06-17T20:09:49.666Z,100.00
2018-06-17T20:12:20.837Z,100.00
2018-06-17T20:14:51.842Z,100.00
2018-06-17T20:17:23.140Z,100.00
2018-06-17T20:19:54.295Z,100.00
2018-06-17T20:22:25.157Z,100.00
2018-06-17T20:24:56.235Z,100.00
2018-06-17T20:27:27.397Z,100.00
2018-06-17T20:29:58.521Z,100.00
2018-06-17T20:32:34.692Z,100.00
2018-06-17T20:35:10.808Z,100.00
2018-06-17T20:37:47.610Z,100.00
2018-06-17T20:40:23.594Z,100.00
2018-06-17T20:42:59.817Z,100.00
2018-06-17T20:45:30.956Z,100.00
2018-06-17T20:48:03.914Z,100.00
2018-06-17T20:50:35.000Z,100.00
2018-06-17T20:53:06.694Z,100.00
2018-06-17T20:55:38.045Z,100.00
2018-06-17T20:58:09.295Z,100.00
2018-06-17T21:00:40.383Z,100.00
2018-06-17T21:03:11.640Z,100.00
2018-06-17T21:05:42.598Z,100.00
2018-06-17T21:08:14.692Z,100.00
2018-06-17T21:10:46.625Z,100.00
2018-06-17T21:13:18.699Z,100.00
2018-06-17T21:15:50.067Z,100.00
2018-06-17T21:18:26.106Z,100.00
2018-06-17T21:21:03.137Z,100.00
2018-06-17T21:23:39.093Z,100.00
2018-06-17T21:26:14.634Z,100.00
2018-06-17T21:28:46.802Z,100.00
2018-06-17T21:31:18.892Z,100.00
2018-06-17T21:33:49.974Z,100.00
2018-06-17T21:36:21.169Z,100.00
2018-06-17T21:38:53.340Z,100.00
2018-06-17T21:41:24.395Z,100.00
2018-06-17T21:43:55.476Z,100.00
2018-06-17T21:46:29.767Z,100.00
2018-06-17T21:49:02.403Z,100.00
2018-06-17T21:51:33.670Z,100.00
2018-06-17T21:54:10.881Z,100.00
2018-06-17T21:56:41.607Z,100.00
2018-06-17T21:59:13.400Z,100.00
2018-06-17T22:01:44.225Z,100.00
2018-06-17T22:04:19.911Z,100.00
2018-06-17T22:06:50.553Z,100.00
2018-06-17T22:09:26.240Z,100.00
2018-06-17T22:12:01.931Z,100.00
2018-06-17T22:14:37.984Z,100.00
2018-06-17T22:17:13.660Z,100.00
2018-06-17T22:19:44.779Z,100.00
2018-06-17T22:22:15.909Z,100.00
2018-06-17T22:24:47.112Z,100.00
2018-06-17T22:27:18.378Z,100.00
2018-06-17T22:29:49.395Z,100.00
2018-06-17T22:32:20.708Z,100.00
2018-06-17T22:34:55.744Z,100.00
2018-06-17T22:37:27.139Z,100.00
2018-06-17T22:39:59.379Z,100.00
2018-06-17T22:42:30.333Z,100.00
2018-06-17T22:45:02.338Z,100.00
2018-06-17T22:47:38.154Z,100.00
2018-06-17T22:50:09.589Z,100.00
2018-06-17T22:52:52.802Z,100.00
2018-06-17T22:55:24.661Z,100.00
2018-06-17T22:58:00.783Z,100.00
2018-06-17T23:00:37.477Z,100.00
2018-06-17T23:03:13.457Z,100.00
2018-06-17T23:05:49.503Z,100.00
2018-06-17T23:08:25.269Z,100.00
2018-06-17T23:10:56.991Z,100.00
2018-06-17T23:13:28.763Z,100.00
2018-06-17T23:15:59.936Z,100.00
2018-06-17T23:18:31.028Z,100.00
2018-06-17T23:21:01.997Z,100.00
2018-06-17T23:23:34.086Z,100.00
2018-06-17T23:26:08.060Z,100.00
2018-06-17T23:28:39.951Z,100.00
2018-06-17T23:31:10.931Z,100.00
2018-06-17T23:33:42.000Z,100.00
2018-06-17T23:36:13.009Z,100.00
2018-06-17T23:38:44.003Z,100.00
2018-06-17T23:41:16.914Z,100.00
2018-06-17T23:43:48.910Z,100.00
2018-06-17T23:46:24.776Z,100.00
2018-06-17T23:49:01.064Z,100.00
2018-06-17T23:51:37.018Z,100.00
2018-06-17T23:54:13.094Z,100.00
2018-06-17T23:56:44.814Z,100.00
2018-06-17T23:59:15.616Z,100.00
